WetterOnline ( https://www.wetteronline.de )

Wetter aktuell Krummhörn

Aktuelles Wetter: Emden (5m)

6-stündlich | Neueste Meldungen
Ortszeit Temperatur Wetter
Do, 17.10. 14:00 14.5° C bewölkt
Do, 17.10. 8:00 12.2° C Sprühregen
Do, 17.10. 2:00 13.8° C leichter Regen
Mi, 16.10. 20:00 13.1° C bewölkt
Mi, 16.10. 14:00 14.2° C leicht bewölkt
Mi, 16.10. 8:00 12.6° C leichter Regen
Mi, 16.10. 2:00 13.3° C leichter Regen
Di, 15.10. 20:00 14.9° C leichter Regen
Ortszeit Temperatur Wetter
Do, 17.10. 17:00 15.2° C wolkenlos
Do, 17.10. 16:50 15.2° C wolkenlos
Do, 17.10. 16:40 15.5° C fast wolkenlos
Do, 17.10. 16:30 15.4° C leicht bewölkt
Do, 17.10. 16:20 15.4° C leicht bewölkt
Do, 17.10. 16:10 15.4° C leicht bewölkt
Do, 17.10. 16:00 14.7° C leicht bewölkt
Do, 17.10. 15:30 15.6° C wolkenlos
Do, 17.10. 15:00 15.3° C leicht bewölkt
Do, 17.10. 14:30 15.3° C leicht bewölkt
Do, 17.10. 14:00 14.5° C bewölkt
Ortszeit Relative Feuchte Sichtweite
Do, 17.10. 14:00 71% 30 km
Do, 17.10. 8:00 98% 2.5 km
Do, 17.10. 2:00 96% 14 km
Mi, 16.10. 20:00 95% 6 km
Mi, 16.10. 14:00 79% 28 km
Mi, 16.10. 8:00 96% 5.0 km
Mi, 16.10. 2:00 97% 5.0 km
Di, 15.10. 20:00 91% 13 km
Ortszeit Relative Feuchte Sichtweite
Do, 17.10. 17:00 66% 30 km
Do, 17.10. 16:50 66% -
Do, 17.10. 16:40 64% -
Do, 17.10. 16:30 66% 30 km
Do, 17.10. 16:20 66% -
Do, 17.10. 16:10 67% -
Do, 17.10. 16:00 68% 28 km
Do, 17.10. 15:30 64% 30 km
Do, 17.10. 15:00 66% 30 km
Do, 17.10. 14:30 69% 30 km
Do, 17.10. 14:00 71% 30 km
Ortszeit Niederschlagsmenge Niederschlagsart
Do, 17.10. 14:00 0.7 l/m2 in 6 Std. Regen
Do, 17.10. 8:00 12 l/m2 in 12 Std. Regen
Do, 17.10. 2:00 10 l/m2 in 6 Std. Regen
Mi, 16.10. 20:00 0.2 l/m2 in 12 Std. Sprühregen
Mi, 16.10. 14:00 0.2 l/m2 in 6 Std. Regen
Mi, 16.10. 8:00 1 l/m2 in 3 Std. Regen
Mi, 16.10. 2:00 0.0 l/m2 in 6 Std. Regen
Di, 15.10. 20:00 keine Meldung -
Ortszeit Niederschlagsmenge Niederschlagsart
Do, 17.10. 17:00 0.0 l/m2 in 1 Std. -
Do, 17.10. 16:50 keine Meldung -
Do, 17.10. 16:40 keine Meldung -
Do, 17.10. 16:30 0.0 l/m2 in 1 Std. -
Do, 17.10. 16:20 keine Meldung -
Do, 17.10. 16:10 keine Meldung -
Do, 17.10. 16:00 0.0 l/m2 in 1 Std. -
Do, 17.10. 15:30 0.0 l/m2 in 1 Std. -
Do, 17.10. 15:00 0.0 l/m2 in 1 Std. -
Do, 17.10. 14:30 0.0 l/m2 in 1 Std. -
Do, 17.10. 14:00 0.0 l/m2 in 1 Std. Regen
Ortszeit Stärke Spitze Richtung
km/h Bft. km/h Grad Sektor
Do, 17.10. 14:00 13 3 22 240° SW
Do, 17.10. 8:00 9 2 33 280° W
Do, 17.10. 2:00 13 3 33 190° S
Mi, 16.10. 20:00 20 4 33 160° S
Mi, 16.10. 14:00 14 3 36 200° S
Mi, 16.10. 8:00 9 2 24 210° SW
Mi, 16.10. 2:00 4 1 18 210° SW
Di, 15.10. 20:00 7 2 28 200° S
Ortszeit Stärke Spitze Richtung
km/h Bft. km/h Grad Sektor
Do, 17.10. 17:00 11 2 18 160° S
Do, 17.10. 16:50 11 2 - 160° S
Do, 17.10. 16:40 9 2 - 180° S
Do, 17.10. 16:30 7 2 18 190° S
Do, 17.10. 16:20 7 2 - 190° S
Do, 17.10. 16:10 9 2 - 200° S
Do, 17.10. 16:00 13 3 22 200° S
Do, 17.10. 15:30 13 3 22 220° SW
Do, 17.10. 15:00 11 2 25 230° SW
Do, 17.10. 14:30 13 3 20 210° SW
Do, 17.10. 14:00 13 3 20 240° SW
Ortszeit Untergrenze Bedeckung Gattung
total tief tief mittel hoch
Do, 17.10. 14:00 720 m 8/8 6/8 - - -
Do, 17.10. 8:00 180 m 8/8 8/8 - - -
Do, 17.10. 2:00 180 m 7/8 7/8 - - -
Mi, 16.10. 20:00 210 m 7/8 7/8 - - -
Mi, 16.10. 14:00 450 m 4/8 4/8 - - -
Mi, 16.10. 8:00 570 m 7/8 7/8 - - -
Mi, 16.10. 2:00 450 m 5/8 5/8 - - -
Di, 15.10. 20:00 1350 m 7/8 7/8 - - -
Ortszeit Bedeckungsgrad in Achtel und Wolkenuntergrenze
Do, 17.10. 17:00 keine Wolken
Do, 17.10. 16:50 keine Wolken
Do, 17.10. 16:40 1(900m)
Do, 17.10. 16:30 2(900m) 3(1800m)
Do, 17.10. 16:20 2(900m) 3(1800m)
Do, 17.10. 16:10 3(1800m)
Do, 17.10. 16:00 1(870m) 4(1800m)
Do, 17.10. 15:30 keine Wolken
Do, 17.10. 15:00 3(870m)
Do, 17.10. 14:30 2(870m) 3(2100m)
Do, 17.10. 14:00 2(720m) 8(1800m) 6(1800m)
Ortszeit Luftdruck NN (hPa) Tendenz (hPa in 3 Std.)
Do, 17.10. 14:00 1010 + 0,7
Do, 17.10. 8:00 1006 + 0,8
Do, 17.10. 2:00 1006 - 0,3
Mi, 16.10. 20:00 1006 - 0,4
Mi, 16.10. 14:00 1008 - 0,3
Mi, 16.10. 8:00 1007 + 0,2
Mi, 16.10. 2:00 1007 - 0,2
Di, 15.10. 20:00 1006 + 1,0
Ortszeit Luftdruck NN (hPa) Tendenz (hPa in 3 Std.)
Do, 17.10. 17:00 1010 - 0,1
Do, 17.10. 16:50 1010 keine Meldung
Do, 17.10. 16:40 1010 keine Meldung
Do, 17.10. 16:30 1010 + 0,2
Do, 17.10. 16:20 1010 keine Meldung
Do, 17.10. 16:10 1010 keine Meldung
Do, 17.10. 16:00 1010 + 0,4
Do, 17.10. 15:30 1010 + 0,6
Do, 17.10. 15:00 1010 + 0,6
Do, 17.10. 14:30 1010 + 0,8
Do, 17.10. 14:00 1010 + 0,7
Ortszeit Schneehöhe (cm)
Do, 17.10. 14:00 0
Do, 17.10. 8:00 0
Do, 17.10. 2:00 0
Mi, 16.10. 20:00 0
Mi, 16.10. 14:00 0
Mi, 16.10. 8:00 0
Mi, 16.10. 2:00 0
Di, 15.10. 20:00 0
Ortszeit Schneehöhe (cm)
Do, 17.10. 17:00 0
Do, 17.10. 16:50 0
Do, 17.10. 16:40 0
Do, 17.10. 16:30 0
Do, 17.10. 16:20 0
Do, 17.10. 16:10 0
Do, 17.10. 16:00 0
Do, 17.10. 15:30 0
Do, 17.10. 15:00 0
Do, 17.10. 14:30 0
Do, 17.10. 14:00 0
Link zu dieser Seite / Seite empfehlen

Das Wetter in ...